createdAt,value
2023-04-16T00:00:03.289Z,100148.06
2023-04-16T00:02:31.036Z,100143.69
2023-04-16T00:04:58.677Z,100157.19
2023-04-16T00:07:26.332Z,100162.50
2023-04-16T00:09:53.839Z,100157.94
2023-04-16T00:12:21.577Z,100157.22
2023-04-16T00:14:50.392Z,100153.69
2023-04-16T00:17:17.886Z,100156.38
2023-04-16T00:19:45.572Z,100157.97
2023-04-16T00:22:13.099Z,100160.75
2023-04-16T00:24:40.617Z,100158.09
2023-04-16T00:27:08.086Z,100156.44
2023-04-16T00:29:35.717Z,100165.19
2023-04-16T00:32:04.499Z,100161.69
2023-04-16T00:34:31.973Z,100159.22
2023-04-16T00:36:59.458Z,100161.63
2023-04-16T00:39:26.960Z,100163.63
2023-04-16T00:41:54.551Z,100161.91
2023-04-16T00:44:22.123Z,100159.25
2023-04-16T00:46:49.774Z,100153.88
2023-04-16T00:49:18.735Z,100167.25
2023-04-16T00:51:46.235Z,100161.88
2023-04-16T00:54:13.744Z,100153.00
2023-04-16T00:56:41.484Z,100150.31
2023-04-16T00:59:09.905Z,100154.69
2023-04-16T01:01:37.810Z,100152.00
2023-04-16T01:04:07.130Z,100157.59
2023-04-16T01:06:36.240Z,100159.28
2023-04-16T01:09:03.889Z,100165.53
2023-04-16T01:11:31.365Z,100165.44
2023-04-16T01:13:58.873Z,100169.84
2023-04-16T01:16:26.702Z,100178.00
2023-04-16T01:18:54.304Z,100178.00
2023-04-16T01:21:23.091Z,100183.16
2023-04-16T01:23:50.606Z,100183.34
2023-04-16T01:26:18.085Z,100184.84
2023-04-16T01:28:45.652Z,100179.63
2023-04-16T01:31:13.156Z,100191.41
2023-04-16T01:33:40.734Z,100187.94
2023-04-16T01:36:08.501Z,100184.38
2023-04-16T01:38:37.315Z,100190.53
2023-04-16T01:41:04.852Z,100188.63
2023-04-16T01:43:32.430Z,100207.56
2023-04-16T01:46:12.614Z,100200.25
2023-04-16T01:48:40.185Z,100205.25
2023-04-16T01:51:09.195Z,100203.28
2023-04-16T01:53:38.113Z,100211.16
2023-04-16T01:56:06.878Z,100211.19
2023-04-16T01:58:34.694Z,100202.09
2023-04-16T02:01:02.305Z,100203.38
2023-04-16T02:03:30.026Z,100213.13
2023-04-16T02:05:57.711Z,100219.34
2023-04-16T02:08:25.406Z,100211.03
2023-04-16T02:10:54.710Z,100211.50
2023-04-16T02:13:23.256Z,100215.03
2023-04-16T02:15:51.641Z,100214.25
2023-04-16T02:18:19.870Z,100212.16
2023-04-16T02:20:49.500Z,100214.41
2023-04-16T02:23:17.050Z,100213.34
2023-04-16T02:25:46.318Z,100221.81
2023-04-16T02:28:16.646Z,100223.88
2023-04-16T02:30:44.520Z,100229.50
2023-04-16T02:33:13.021Z,100221.47
2023-04-16T02:35:41.046Z,100227.28
2023-04-16T02:38:08.885Z,100227.81
2023-04-16T02:40:36.650Z,100223.13
2023-04-16T02:43:04.409Z,100227.72
2023-04-16T02:45:33.297Z,100229.56
2023-04-16T02:48:01.632Z,100222.34
2023-04-16T02:50:29.163Z,100217.81
2023-04-16T02:52:56.754Z,100223.19
2023-04-16T02:55:24.248Z,100235.66
2023-04-16T02:57:52.771Z,100234.00
2023-04-16T03:00:20.787Z,100234.22
2023-04-16T03:02:49.827Z,100242.16
2023-04-16T03:05:17.669Z,100239.28
2023-04-16T03:07:45.403Z,100239.28
2023-04-16T03:10:13.864Z,100240.19
2023-04-16T03:12:41.470Z,100234.03
2023-04-16T03:15:09.947Z,100237.81
2023-04-16T03:17:37.571Z,100245.50
2023-04-16T03:20:08.300Z,100243.97
2023-04-16T03:22:35.920Z,100244.13
2023-04-16T03:25:03.541Z,100242.47
2023-04-16T03:27:31.137Z,100250.41
2023-04-16T03:29:58.723Z,100246.81
2023-04-16T03:32:26.758Z,100256.47
2023-04-16T03:34:54.363Z,100256.44
2023-04-16T03:37:23.202Z,100257.25
2023-04-16T03:39:50.690Z,100254.47
2023-04-16T03:42:18.191Z,100254.69
2023-04-16T03:44:45.924Z,100260.00
2023-04-16T03:47:13.433Z,100260.03
2023-04-16T03:49:40.940Z,100263.78
2023-04-16T03:52:08.438Z,100266.41
2023-04-16T03:54:37.245Z,100264.56
2023-04-16T03:57:05.143Z,100269.16
2023-04-16T03:59:32.622Z,100270.03
2023-04-16T04:02:00.338Z,100276.19
2023-04-16T04:04:28.010Z,100271.66
2023-04-16T04:06:55.654Z,100276.28
2023-04-16T04:09:23.120Z,100279.84
2023-04-16T04:11:51.969Z,100286.00
2023-04-16T04:14:19.450Z,100285.00
2023-04-16T04:16:46.979Z,100293.84
2023-04-16T04:19:14.528Z,100285.72
2023-04-16T04:21:42.065Z,100292.19
2023-04-16T04:24:09.661Z,100287.06
2023-04-16T04:26:37.250Z,100298.41
2023-04-16T04:29:06.200Z,100297.38
2023-04-16T04:31:33.745Z,100305.72
2023-04-16T04:34:01.362Z,100294.00
2023-04-16T04:36:28.961Z,100304.53
2023-04-16T04:38:56.479Z,100309.22
2023-04-16T04:41:23.998Z,100303.09
2023-04-16T04:43:51.884Z,100316.22
2023-04-16T04:46:20.874Z,100310.81
2023-04-16T04:48:48.501Z,100310.94
2023-04-16T04:51:15.979Z,100318.09
2023-04-16T04:53:43.470Z,100313.38
2023-04-16T04:56:12.889Z,100320.75
2023-04-16T04:58:41.304Z,100318.81
2023-04-16T05:01:08.882Z,100323.16
2023-04-16T05:03:38.080Z,100327.84
2023-04-16T05:06:06.107Z,100330.53
2023-04-16T05:08:33.671Z,100329.63
2023-04-16T05:11:01.487Z,100332.97
2023-04-16T05:13:28.984Z,100338.38
2023-04-16T05:15:56.484Z,100337.63
2023-04-16T05:18:24.024Z,100340.28
2023-04-16T05:20:52.847Z,100342.66
2023-04-16T05:23:20.411Z,100345.25
2023-04-16T05:25:47.913Z,100346.47
2023-04-16T05:28:15.393Z,100349.09
2023-04-16T05:30:42.922Z,100356.19
2023-04-16T05:33:10.451Z,100354.38
2023-04-16T05:35:39.998Z,100343.63
2023-04-16T05:38:08.801Z,100357.94
2023-04-16T05:40:36.332Z,100342.75
2023-04-16T05:43:03.896Z,100349.03
2023-04-16T05:45:33.354Z,100349.88
2023-04-16T05:48:00.850Z,100353.38
2023-04-16T05:50:28.380Z,100352.28
2023-04-16T05:52:55.866Z,100358.78
2023-04-16T05:55:24.670Z,100362.34
2023-04-16T05:57:52.184Z,100371.28
2023-04-16T06:00:19.772Z,100377.41
2023-04-16T06:02:47.337Z,100373.91
2023-04-16T06:05:15.084Z,100374.66
2023-04-16T06:07:42.634Z,100378.34
2023-04-16T06:10:11.114Z,100381.91
2023-04-16T06:12:40.023Z,100389.00
2023-04-16T06:15:08.797Z,100391.66
2023-04-16T06:17:36.305Z,100387.06
2023-04-16T06:20:04.799Z,100390.84
2023-04-16T06:22:32.408Z,100396.09
2023-04-16T06:24:59.891Z,100395.22
2023-04-16T06:27:27.564Z,100386.31
2023-04-16T06:29:57.949Z,100394.28
2023-04-16T06:32:25.955Z,100395.25
2023-04-16T06:34:53.473Z,100393.38
2023-04-16T06:37:20.944Z,100404.81
2023-04-16T06:39:48.442Z,100404.94
2023-04-16T06:42:16.123Z,100409.44
2023-04-16T06:44:43.639Z,100402.19
2023-04-16T06:47:12.570Z,100410.19
2023-04-16T06:49:40.374Z,100410.94
2023-04-16T06:52:07.977Z,100408.50
2023-04-16T06:54:35.500Z,100416.34
2023-04-16T06:57:03.010Z,100411.81
2023-04-16T06:59:30.523Z,100410.88
2023-04-16T07:01:58.258Z,100414.50
2023-04-16T07:04:27.201Z,100412.81
2023-04-16T07:06:54.697Z,100416.38
2023-04-16T07:09:22.309Z,100417.19
2023-04-16T07:11:49.869Z,100424.25
2023-04-16T07:14:17.416Z,100426.94
2023-04-16T07:16:44.919Z,100428.69
2023-04-16T07:19:12.491Z,100434.03
2023-04-16T07:21:43.541Z,100439.25
2023-04-16T07:24:11.311Z,100441.19
2023-04-16T07:26:38.826Z,100435.69
2023-04-16T07:29:06.370Z,100429.69
2023-04-16T07:31:33.894Z,100442.81
2023-04-16T07:34:01.408Z,100445.53
2023-04-16T07:36:29.217Z,100442.19
2023-04-16T07:38:58.037Z,100446.44
2023-04-16T07:41:25.884Z,100455.34
2023-04-16T07:43:53.384Z,100456.16
2023-04-16T07:46:21.147Z,100457.78
2023-04-16T07:48:48.729Z,100462.31
2023-04-16T07:51:16.289Z,100462.28
2023-04-16T07:53:43.787Z,100470.34
2023-04-16T07:56:12.666Z,100466.78
2023-04-16T07:58:40.279Z,100470.47
2023-04-16T08:01:07.786Z,100469.53
2023-04-16T08:03:35.496Z,100475.78
2023-04-16T08:06:03.365Z,100480.91
2023-04-16T08:08:30.840Z,100479.22
2023-04-16T08:10:58.516Z,100477.16
2023-04-16T08:13:27.347Z,100486.13
2023-04-16T08:15:54.864Z,100483.63
2023-04-16T08:18:22.380Z,100488.19
2023-04-16T08:20:49.852Z,100489.88
2023-04-16T08:23:17.359Z,100492.28
2023-04-16T08:25:44.820Z,100494.41
2023-04-16T08:28:12.331Z,100502.41
2023-04-16T08:30:41.243Z,100508.59
2023-04-16T08:33:09.140Z,100503.00
2023-04-16T08:35:36.864Z,100512.19
2023-04-16T08:38:04.734Z,100516.28
2023-04-16T08:40:32.438Z,100519.22
2023-04-16T08:43:01.008Z,100527.94
2023-04-16T08:45:28.535Z,100527.97
2023-04-16T08:47:57.722Z,100529.72
2023-04-16T08:50:26.599Z,100529.69
2023-04-16T08:52:57.507Z,100526.19
2023-04-16T08:55:27.893Z,100528.69
2023-04-16T08:57:59.183Z,100525.66
2023-04-16T09:00:26.910Z,100536.59
2023-04-16T09:02:54.988Z,100530.38
2023-04-16T09:05:25.740Z,100536.94
2023-04-16T09:07:54.172Z,100544.84
2023-04-16T09:10:21.883Z,100535.03
2023-04-16T09:12:49.424Z,100543.91
2023-04-16T09:15:16.939Z,100542.16
2023-04-16T09:17:44.511Z,100536.91
2023-04-16T09:20:12.557Z,100541.31
2023-04-16T09:22:41.495Z,100543.00
2023-04-16T09:25:09.842Z,100546.50
2023-04-16T09:27:37.947Z,100553.84
2023-04-16T09:30:21.912Z,100557.44
2023-04-16T09:32:49.976Z,100557.28
2023-04-16T09:35:18.799Z,100557.94
2023-04-16T09:37:57.614Z,100564.41
2023-04-16T09:40:26.125Z,100558.78
2023-04-16T09:42:56.066Z,100566.16
2023-04-16T09:45:23.815Z,100564.34
2023-04-16T09:47:51.522Z,100566.16
2023-04-16T09:50:20.536Z,100562.53
2023-04-16T09:52:51.409Z,100568.72
2023-04-16T09:55:23.975Z,100574.69
2023-04-16T09:57:59.847Z,100569.66
2023-04-16T10:00:27.388Z,100573.25
2023-04-16T10:03:04.901Z,100584.75
2023-04-16T10:05:32.452Z,100579.47
2023-04-16T10:08:02.580Z,100584.59
2023-04-16T10:10:30.491Z,100584.69
2023-04-16T10:12:58.507Z,100586.44
2023-04-16T10:15:26.264Z,100584.59
2023-04-16T10:17:55.141Z,100576.63
2023-04-16T10:20:23.853Z,100584.66
2023-04-16T10:22:51.440Z,100587.91
2023-04-16T10:25:20.921Z,100592.53
2023-04-16T10:27:48.999Z,100591.59
2023-04-16T10:30:16.690Z,100595.09
2023-04-16T10:32:44.812Z,100596.00
2023-04-16T10:35:16.781Z,100607.34
2023-04-16T10:37:46.094Z,100600.41
2023-04-16T10:40:24.875Z,100602.28
2023-04-16T10:42:58.117Z,100604.91
2023-04-16T10:45:32.420Z,100605.03
2023-04-16T10:48:00.057Z,100613.88
2023-04-16T10:50:36.055Z,100605.78
2023-04-16T10:53:24.021Z,100606.56
2023-04-16T10:56:00.458Z,100607.28
2023-04-16T10:58:28.573Z,100611.03
2023-04-16T11:00:56.074Z,100615.31
2023-04-16T11:03:23.703Z,100616.06
2023-04-16T11:05:51.269Z,100613.63
2023-04-16T11:08:18.761Z,100609.84
2023-04-16T11:10:46.296Z,100612.53
2023-04-16T11:13:15.294Z,100610.84
2023-04-16T11:15:42.815Z,100612.44
2023-04-16T11:18:10.750Z,100615.44
2023-04-16T11:20:42.544Z,100618.84
2023-04-16T11:23:13.083Z,100618.53
2023-04-16T11:25:40.686Z,100622.13
2023-04-16T11:28:08.190Z,100619.50
2023-04-16T11:30:38.606Z,100621.28
2023-04-16T11:33:06.722Z,100621.47
2023-04-16T11:35:34.390Z,100621.34
2023-04-16T11:38:02.264Z,100625.66
2023-04-16T11:40:30.851Z,100623.94
2023-04-16T11:43:02.758Z,100620.38
2023-04-16T11:45:30.509Z,100622.22
2023-04-16T11:47:59.392Z,100631.16
2023-04-16T11:50:27.730Z,100625.38
2023-04-16T11:52:57.081Z,100625.63
2023-04-16T11:55:25.057Z,100621.31
2023-04-16T11:57:52.579Z,100630.84
2023-04-16T12:00:21.607Z,100626.47
2023-04-16T12:02:53.331Z,100624.44
2023-04-16T12:05:30.839Z,100626.34
2023-04-16T12:07:59.019Z,100629.03
2023-04-16T12:10:27.404Z,100630.91
2023-04-16T12:12:55.005Z,100640.44
2023-04-16T12:15:22.511Z,100632.38
2023-04-16T12:17:50.559Z,100635.56
2023-04-16T12:20:18.116Z,100628.09
2023-04-16T12:22:49.450Z,100634.97
2023-04-16T12:25:18.777Z,100634.63
2023-04-16T12:27:48.616Z,100634.72
2023-04-16T12:30:18.399Z,100638.25
2023-04-16T12:32:47.543Z,100648.00
2023-04-16T12:35:15.643Z,100641.00
2023-04-16T12:37:43.159Z,100648.25
2023-04-16T12:40:12.554Z,100645.97
2023-04-16T12:42:40.243Z,100645.72
2023-04-16T12:45:08.416Z,100646.41
2023-04-16T12:47:36.025Z,100645.91
2023-04-16T12:50:03.653Z,100642.25
2023-04-16T12:52:31.194Z,100646.88
2023-04-16T12:54:58.706Z,100644.69
2023-04-16T12:57:28.726Z,100646.66
2023-04-16T12:59:56.965Z,100651.13
2023-04-16T13:02:24.778Z,100653.03
2023-04-16T13:04:52.649Z,100649.53
2023-04-16T13:07:20.385Z,100647.72
2023-04-16T13:09:48.243Z,100659.00
2023-04-16T13:12:15.735Z,100650.00
2023-04-16T13:14:45.200Z,100651.75
2023-04-16T13:17:12.759Z,100648.19
2023-04-16T13:19:40.292Z,100655.22
2023-04-16T13:22:07.793Z,100656.94
2023-04-16T13:24:35.435Z,100654.06
2023-04-16T13:27:03.134Z,100657.88
2023-04-16T13:29:30.914Z,100651.03
2023-04-16T13:31:59.753Z,100654.56
2023-04-16T13:34:27.421Z,100653.09
2023-04-16T13:36:54.897Z,100653.16
2023-04-16T13:39:22.419Z,100660.38
2023-04-16T13:41:51.291Z,100655.69
2023-04-16T13:44:18.827Z,100661.88
2023-04-16T13:46:47.719Z,100662.91
2023-04-16T13:49:16.933Z,100660.38
2023-04-16T13:51:45.036Z,100655.94
2023-04-16T13:54:12.580Z,100658.63
2023-04-16T13:56:40.911Z,100656.06
2023-04-16T13:59:08.777Z,100652.34
2023-04-16T14:01:36.582Z,100663.25
2023-04-16T14:04:06.382Z,100654.16
2023-04-16T14:06:35.905Z,100655.97
2023-04-16T14:09:04.530Z,100657.78
2023-04-16T14:11:32.236Z,100665.97
2023-04-16T14:13:59.782Z,100655.84
2023-04-16T14:16:27.531Z,100654.84
2023-04-16T14:18:55.332Z,100659.50
2023-04-16T14:21:22.992Z,100664.94
2023-04-16T14:23:51.907Z,100665.69
2023-04-16T14:26:19.459Z,100665.66
2023-04-16T14:28:46.952Z,100677.50
2023-04-16T14:31:14.518Z,100675.41
2023-04-16T14:33:42.130Z,100664.78
2023-04-16T14:36:09.922Z,100672.13
2023-04-16T14:38:37.429Z,100669.31
2023-04-16T14:41:06.395Z,100674.91
2023-04-16T14:43:34.277Z,100675.25
2023-04-16T14:46:03.449Z,100672.44
2023-04-16T14:48:31.075Z,100669.66
2023-04-16T14:50:58.607Z,100670.06
2023-04-16T14:53:26.113Z,100676.31
2023-04-16T14:55:53.770Z,100672.84
2023-04-16T14:58:22.879Z,100679.25
2023-04-16T15:00:50.506Z,100680.91
2023-04-16T15:03:18.285Z,100675.59
2023-04-16T15:05:47.489Z,100673.94
2023-04-16T15:08:16.098Z,100669.34
2023-04-16T15:10:45.751Z,100677.44
2023-04-16T15:13:13.395Z,100677.47
2023-04-16T15:15:42.222Z,100682.78
2023-04-16T15:18:09.851Z,100668.56
2023-04-16T15:20:37.361Z,100680.09
2023-04-16T15:23:05.142Z,100673.84
2023-04-16T15:25:32.614Z,100678.06
2023-04-16T15:28:02.459Z,100678.09
2023-04-16T15:30:29.999Z,100677.28
2023-04-16T15:32:58.878Z,100683.50
2023-04-16T15:35:26.419Z,100688.59
2023-04-16T15:37:55.398Z,100688.81
2023-04-16T15:40:22.920Z,100694.97
2023-04-16T15:42:50.429Z,100690.56
2023-04-16T15:45:17.933Z,100687.97
2023-04-16T15:47:47.970Z,100693.47
2023-04-16T15:50:17.019Z,100696.72
2023-04-16T15:52:44.547Z,100695.03
2023-04-16T15:55:12.173Z,100698.44
2023-04-16T15:57:39.809Z,100707.63
2023-04-16T16:00:13.510Z,100700.56
2023-04-16T16:02:41.779Z,100703.28
2023-04-16T16:05:10.771Z,100702.44
2023-04-16T16:07:39.715Z,100706.94
2023-04-16T16:10:08.645Z,100706.06
2023-04-16T16:12:36.488Z,100699.00
2023-04-16T16:15:04.689Z,100706.13
2023-04-16T16:17:32.272Z,100707.03
2023-04-16T16:20:00.241Z,100708.91
2023-04-16T16:22:27.768Z,100707.13
2023-04-16T16:24:57.610Z,100708.06
2023-04-16T16:27:25.123Z,100714.25
2023-04-16T16:29:52.628Z,100705.41
2023-04-16T16:32:20.128Z,100705.34
2023-04-16T16:34:47.667Z,100710.84
2023-04-16T16:37:15.436Z,100711.75
2023-04-16T16:39:42.929Z,100713.56
2023-04-16T16:42:11.927Z,100718.03
2023-04-16T16:44:39.522Z,100720.63
2023-04-16T16:47:07.063Z,100717.16
2023-04-16T16:49:34.597Z,100717.88
2023-04-16T16:52:02.153Z,100726.00
2023-04-16T16:54:29.677Z,100730.56
2023-04-16T16:56:57.157Z,100724.34
2023-04-16T16:59:26.239Z,100730.50
2023-04-16T17:01:53.771Z,100727.88
2023-04-16T17:04:21.435Z,100731.28
2023-04-16T17:06:49.221Z,100727.84
2023-04-16T17:09:16.782Z,100733.22
2023-04-16T17:11:44.294Z,100735.88
2023-04-16T17:14:13.933Z,100737.63
2023-04-16T17:16:42.850Z,100748.38
2023-04-16T17:19:12.359Z,100747.44
2023-04-16T17:21:39.948Z,100744.88
2023-04-16T17:24:08.071Z,100747.44
2023-04-16T17:26:35.566Z,100747.44
2023-04-16T17:29:04.415Z,100751.13
2023-04-16T17:31:32.030Z,100748.47
2023-04-16T17:34:00.946Z,100752.91
2023-04-16T17:36:28.426Z,100753.47
2023-04-16T17:38:56.026Z,100757.13
2023-04-16T17:41:23.509Z,100762.44
2023-04-16T17:43:51.309Z,100766.25
2023-04-16T17:46:18.859Z,100764.31
2023-04-16T17:48:47.904Z,100772.38
2023-04-16T17:51:16.983Z,100769.63
2023-04-16T17:53:44.724Z,100777.81
2023-04-16T17:56:12.401Z,100774.28
2023-04-16T17:58:39.907Z,100776.03
2023-04-16T18:01:07.450Z,100785.78
2023-04-16T18:03:35.160Z,100784.03
2023-04-16T18:06:02.710Z,100784.84
2023-04-16T18:08:32.710Z,100789.31
2023-04-16T18:11:00.179Z,100793.75
2023-04-16T18:13:27.665Z,100791.13
2023-04-16T18:15:55.535Z,100792.78
2023-04-16T18:18:23.134Z,100793.69
2023-04-16T18:20:50.622Z,100808.97
2023-04-16T18:23:18.166Z,100801.81
2023-04-16T18:25:48.817Z,100804.53
2023-04-16T18:28:17.552Z,100807.22
2023-04-16T18:30:45.309Z,100800.97
2023-04-16T18:33:42.807Z,100808.09
2023-04-16T18:36:01.525Z,100813.41
2023-04-16T18:38:30.355Z,100820.53
2023-04-16T18:40:59.247Z,100818.75
2023-04-16T18:43:26.940Z,100820.56
2023-04-16T18:45:54.428Z,100825.00
2023-04-16T18:48:21.961Z,100828.56
2023-04-16T18:50:49.467Z,100831.22
2023-04-16T18:53:17.201Z,100831.19
2023-04-16T18:55:44.714Z,100834.72
2023-04-16T18:58:13.532Z,100841.00
2023-04-16T19:00:41.127Z,100833.78
2023-04-16T19:03:09.604Z,100843.63
2023-04-16T19:05:37.129Z,100846.31
2023-04-16T19:08:04.775Z,100842.75
2023-04-16T19:10:32.339Z,100842.75
2023-04-16T19:12:59.848Z,100843.53
2023-04-16T19:15:31.577Z,100845.47
2023-04-16T19:18:00.015Z,100841.88
2023-04-16T19:20:27.683Z,100841.91
2023-04-16T19:22:55.367Z,100848.16
2023-04-16T19:25:22.933Z,100849.13
2023-04-16T19:27:51.134Z,100850.97
2023-04-16T19:30:19.070Z,100852.72
2023-04-16T19:32:47.987Z,100848.28
2023-04-16T19:35:15.621Z,100848.22
2023-04-16T19:37:43.503Z,100846.41
2023-04-16T19:40:11.675Z,100849.88
2023-04-16T19:42:39.940Z,100849.00
2023-04-16T19:45:08.612Z,100850.78
2023-04-16T19:47:36.152Z,100852.63
2023-04-16T19:50:05.427Z,100849.97
2023-04-16T19:52:37.311Z,100846.44
2023-04-16T19:55:05.385Z,100853.50
2023-04-16T19:57:33.050Z,100855.34
2023-04-16T20:00:00.782Z,100851.69
2023-04-16T20:02:28.420Z,100853.50
2023-04-16T20:04:55.950Z,100856.13
2023-04-16T20:07:24.775Z,100853.50
2023-04-16T20:09:53.336Z,100860.69
2023-04-16T20:12:20.995Z,100861.47
2023-04-16T20:14:48.522Z,100866.88
2023-04-16T20:17:18.594Z,100865.09
2023-04-16T20:19:49.383Z,100869.47
2023-04-16T20:22:18.620Z,100870.47
2023-04-16T20:24:48.193Z,100863.28
2023-04-16T20:27:16.812Z,100865.06
2023-04-16T20:29:44.315Z,100872.31
2023-04-16T20:32:11.800Z,100881.25
2023-04-16T20:34:40.518Z,100871.47
2023-04-16T20:37:08.068Z,100871.44
2023-04-16T20:39:37.178Z,100868.66
2023-04-16T20:42:10.369Z,100872.25
2023-04-16T20:44:41.325Z,100867.88
2023-04-16T20:47:09.256Z,100880.16
2023-04-16T20:49:38.446Z,100869.59
2023-04-16T20:52:07.272Z,100875.84
2023-04-16T20:54:35.047Z,100870.53
2023-04-16T20:57:04.785Z,100867.00
2023-04-16T20:59:33.911Z,100869.59
2023-04-16T21:02:01.647Z,100871.38
2023-04-16T21:04:29.304Z,100875.88
2023-04-16T21:06:56.850Z,100876.69
2023-04-16T21:09:24.697Z,100873.97
2023-04-16T21:11:52.438Z,100875.81
2023-04-16T21:14:19.941Z,100869.66
2023-04-16T21:16:48.781Z,100875.81
2023-04-16T21:19:16.289Z,100883.81
2023-04-16T21:21:43.808Z,100885.69
2023-04-16T21:24:11.366Z,100891.94
2023-04-16T21:26:38.862Z,100882.19
2023-04-16T21:29:06.379Z,100890.13
2023-04-16T21:31:33.921Z,100890.13
2023-04-16T21:34:02.790Z,100881.28
2023-04-16T21:36:32.071Z,100891.97
2023-04-16T21:38:59.587Z,100890.19
2023-04-16T21:41:27.153Z,100892.84
2023-04-16T21:43:54.714Z,100890.16
2023-04-16T21:46:22.572Z,100887.41
2023-04-16T21:48:50.788Z,100890.16
2023-04-16T21:51:20.097Z,100896.38
2023-04-16T21:53:47.602Z,100890.16
2023-04-16T21:56:15.173Z,100888.44
2023-04-16T21:58:42.688Z,100889.31
2023-04-16T22:01:11.050Z,100884.78
2023-04-16T22:03:40.349Z,100890.19
2023-04-16T22:06:08.730Z,100890.19
2023-04-16T22:08:37.904Z,100891.94
2023-04-16T22:11:05.588Z,100894.63
2023-04-16T22:13:33.182Z,100890.19
2023-04-16T22:16:02.319Z,100900.00
2023-04-16T22:18:32.866Z,100891.09
2023-04-16T22:21:00.799Z,100890.19
2023-04-16T22:23:28.409Z,100908.91
2023-04-16T22:25:57.648Z,100894.66
2023-04-16T22:28:25.325Z,100902.69
2023-04-16T22:30:52.833Z,100902.75
2023-04-16T22:33:20.362Z,100897.41
2023-04-16T22:35:48.001Z,100898.28
2023-04-16T22:38:16.489Z,100892.06
2023-04-16T22:40:44.158Z,100895.66
2023-04-16T22:43:12.986Z,100903.63
2023-04-16T22:45:41.106Z,100900.09
2023-04-16T22:48:08.691Z,100899.19
2023-04-16T22:50:36.220Z,100898.34
2023-04-16T22:53:03.790Z,100900.09
2023-04-16T22:55:31.276Z,100899.19
2023-04-16T22:57:58.834Z,100898.31
2023-04-16T23:00:28.446Z,100898.34
2023-04-16T23:02:56.038Z,100900.97
2023-04-16T23:05:23.597Z,100905.41
2023-04-16T23:07:51.137Z,100902.75
2023-04-16T23:10:18.620Z,100890.31
2023-04-16T23:12:46.153Z,100904.50
2023-04-16T23:15:14.439Z,100904.53
2023-04-16T23:17:43.396Z,100901.84
2023-04-16T23:20:12.165Z,100903.59
2023-04-16T23:22:39.693Z,100908.91
2023-04-16T23:25:08.812Z,100914.19
2023-04-16T23:27:36.390Z,100916.84
2023-04-16T23:30:04.564Z,100912.41
2023-04-16T23:32:33.969Z,100919.47
2023-04-16T23:35:02.967Z,100913.25
2023-04-16T23:37:30.520Z,100915.03
2023-04-16T23:39:58.057Z,100908.78
2023-04-16T23:42:25.559Z,100910.53
2023-04-16T23:44:53.129Z,100912.28
2023-04-16T23:47:20.684Z,100917.53
2023-04-16T23:49:48.200Z,100913.97
2023-04-16T23:52:17.019Z,100916.59
2023-04-16T23:54:44.503Z,100913.00
2023-04-16T23:57:12.011Z,100918.28
2023-04-16T23:59:39.615Z,100920.06
